sensor_id;sensor_type;location;lat;lon;timestamp;P1;durP1;ratioP1;P2;durP2;ratioP2
3543;SDS011;1786;52.870;9.578;2022-12-18T00:02:12;18.53;;;11.70;;
3543;SDS011;1786;52.870;9.578;2022-12-18T00:04:39;24.17;;;12.20;;
3543;SDS011;1786;52.870;9.578;2022-12-18T00:07:05;17.60;;;11.83;;
3543;SDS011;1786;52.870;9.578;2022-12-18T00:09:32;17.77;;;11.33;;
3543;SDS011;1786;52.870;9.578;2022-12-18T00:12:06;16.50;;;10.60;;
3543;SDS011;1786;52.870;9.578;2022-12-18T00:14:41;25.73;;;12.03;;
3543;SDS011;1786;52.870;9.578;2022-12-18T00:17:08;27.40;;;12.67;;
3543;SDS011;1786;52.870;9.578;2022-12-18T00:19:35;24.63;;;13.40;;
3543;SDS011;1786;52.870;9.578;2022-12-18T00:22:01;25.57;;;12.43;;
3543;SDS011;1786;52.870;9.578;2022-12-18T00:24:29;20.03;;;11.03;;
3543;SDS011;1786;52.870;9.578;2022-12-18T00:26:55;21.77;;;10.50;;
3543;SDS011;1786;52.870;9.578;2022-12-18T00:29:22;18.77;;;10.17;;
3543;SDS011;1786;52.870;9.578;2022-12-18T00:31:49;16.93;;;10.30;;
3543;SDS011;1786;52.870;9.578;2022-12-18T00:34:16;19.63;;;10.27;;
3543;SDS011;1786;52.870;9.578;2022-12-18T00:36:43;17.27;;;10.27;;
3543;SDS011;1786;52.870;9.578;2022-12-18T00:39:11;23.23;;;11.27;;
3543;SDS011;1786;52.870;9.578;2022-12-18T00:41:39;14.57;;;9.57;;
3543;SDS011;1786;52.870;9.578;2022-12-18T00:44:24;18.93;;;8.97;;
3543;SDS011;1786;52.870;9.578;2022-12-18T00:46:51;17.27;;;7.67;;
3543;SDS011;1786;52.870;9.578;2022-12-18T00:49:18;9.13;;;8.20;;
3543;SDS011;1786;52.870;9.578;2022-12-18T00:51:46;11.33;;;8.10;;
3543;SDS011;1786;52.870;9.578;2022-12-18T00:54:14;10.30;;;7.03;;
3543;SDS011;1786;52.870;9.578;2022-12-18T00:56:41;9.70;;;6.93;;
3543;SDS011;1786;52.870;9.578;2022-12-18T00:59:15;10.27;;;6.60;;
3543;SDS011;1786;52.870;9.578;2022-12-18T01:01:43;17.13;;;9.03;;
3543;SDS011;1786;52.870;9.578;2022-12-18T01:04:10;15.30;;;10.27;;
3543;SDS011;1786;52.870;9.578;2022-12-18T01:06:38;20.03;;;10.50;;
3543;SDS011;1786;52.870;9.578;2022-12-18T01:09:05;16.73;;;9.60;;
3543;SDS011;1786;52.870;9.578;2022-12-18T01:11:35;15.87;;;9.83;;
3543;SDS011;1786;52.870;9.578;2022-12-18T01:14:03;13.10;;;7.87;;
3543;SDS011;1786;52.870;9.578;2022-12-18T01:16:30;16.13;;;8.57;;
3543;SDS011;1786;52.870;9.578;2022-12-18T01:18:57;14.20;;;8.47;;
3543;SDS011;1786;52.870;9.578;2022-12-18T01:21:26;15.20;;;7.80;;
3543;SDS011;1786;52.870;9.578;2022-12-18T01:23:54;13.73;;;6.70;;
3543;SDS011;1786;52.870;9.578;2022-12-18T01:26:22;11.70;;;7.73;;
3543;SDS011;1786;52.870;9.578;2022-12-18T01:28:50;10.50;;;7.50;;
3543;SDS011;1786;52.870;9.578;2022-12-18T01:31:28;13.10;;;8.13;;
3543;SDS011;1786;52.870;9.578;2022-12-18T01:33:57;12.23;;;7.37;;
3543;SDS011;1786;52.870;9.578;2022-12-18T01:36:29;10.83;;;7.47;;
3543;SDS011;1786;52.870;9.578;2022-12-18T01:39:03;8.60;;;6.97;;
3543;SDS011;1786;52.870;9.578;2022-12-18T01:41:34;10.00;;;7.50;;
3543;SDS011;1786;52.870;9.578;2022-12-18T01:50:00;13.20;;;7.80;;
3543;SDS011;1786;52.870;9.578;2022-12-18T01:52:30;20.27;;;6.80;;
3543;SDS011;1786;52.870;9.578;2022-12-18T01:54:59;14.23;;;7.27;;
3543;SDS011;1786;52.870;9.578;2022-12-18T01:57:28;19.23;;;7.37;;
3543;SDS011;1786;52.870;9.578;2022-12-18T01:59:57;15.80;;;7.73;;
3543;SDS011;1786;52.870;9.578;2022-12-18T02:02:38;19.23;;;7.93;;
3543;SDS011;1786;52.870;9.578;2022-12-18T02:05:07;15.57;;;7.07;;
3543;SDS011;1786;52.870;9.578;2022-12-18T02:07:43;14.47;;;7.93;;
3543;SDS011;1786;52.870;9.578;2022-12-18T02:13:01;14.70;;;8.50;;
3543;SDS011;1786;52.870;9.578;2022-12-18T02:15:54;12.20;;;8.00;;
3543;SDS011;1786;52.870;9.578;2022-12-18T02:18:36;11.97;;;7.13;;
3543;SDS011;1786;52.870;9.578;2022-12-18T02:24:00;12.20;;;7.23;;
3543;SDS011;1786;52.870;9.578;2022-12-18T02:26:47;10.23;;;6.97;;
3543;SDS011;1786;52.870;9.578;2022-12-18T02:31:55;10.90;;;7.13;;
3543;SDS011;1786;52.870;9.578;2022-12-18T02:34:30;7.30;;;5.70;;
3543;SDS011;1786;52.870;9.578;2022-12-18T02:37:02;11.50;;;6.80;;
3543;SDS011;1786;52.870;9.578;2022-12-18T02:39:33;10.73;;;6.90;;
3543;SDS011;1786;52.870;9.578;2022-12-18T02:42:03;7.50;;;6.53;;
3543;SDS011;1786;52.870;9.578;2022-12-18T02:44:35;8.10;;;6.87;;
3543;SDS011;1786;52.870;9.578;2022-12-18T02:47:10;8.30;;;5.70;;
3543;SDS011;1786;52.870;9.578;2022-12-18T02:49:53;14.87;;;8.10;;
3543;SDS011;1786;52.870;9.578;2022-12-18T03:04:22;11.90;;;7.30;;
3543;SDS011;1786;52.870;9.578;2022-12-18T03:06:57;16.33;;;9.90;;
3543;SDS011;1786;52.870;9.578;2022-12-18T03:09:31;8.50;;;6.33;;
3543;SDS011;1786;52.870;9.578;2022-12-18T03:12:04;12.33;;;7.03;;
3543;SDS011;1786;52.870;9.578;2022-12-18T03:14:51;15.17;;;7.43;;
3543;SDS011;1786;52.870;9.578;2022-12-18T03:17:27;12.90;;;7.93;;
3543;SDS011;1786;52.870;9.578;2022-12-18T03:19:59;11.40;;;7.37;;
3543;SDS011;1786;52.870;9.578;2022-12-18T03:22:32;12.90;;;6.90;;
3543;SDS011;1786;52.870;9.578;2022-12-18T03:25:03;12.33;;;7.03;;
3543;SDS011;1786;52.870;9.578;2022-12-18T03:27:33;10.27;;;6.77;;
3543;SDS011;1786;52.870;9.578;2022-12-18T03:30:08;12.80;;;6.63;;
3543;SDS011;1786;52.870;9.578;2022-12-18T03:35:26;10.50;;;6.20;;
3543;SDS011;1786;52.870;9.578;2022-12-18T03:37:57;9.47;;;6.53;;
3543;SDS011;1786;52.870;9.578;2022-12-18T03:40:26;10.37;;;6.20;;
3543;SDS011;1786;52.870;9.578;2022-12-18T03:43:03;12.93;;;6.20;;
3543;SDS011;1786;52.870;9.578;2022-12-18T03:45:38;12.37;;;6.50;;
3543;SDS011;1786;52.870;9.578;2022-12-18T03:48:16;15.27;;;6.37;;
3543;SDS011;1786;52.870;9.578;2022-12-18T03:50:54;11.07;;;7.20;;
3543;SDS011;1786;52.870;9.578;2022-12-18T03:53:29;9.57;;;6.10;;
3543;SDS011;1786;52.870;9.578;2022-12-18T03:56:18;8.77;;;6.70;;
3543;SDS011;1786;52.870;9.578;2022-12-18T03:58:49;7.73;;;5.90;;
3543;SDS011;1786;52.870;9.578;2022-12-18T04:01:23;10.13;;;6.67;;
3543;SDS011;1786;52.870;9.578;2022-12-18T04:03:55;9.20;;;6.00;;
3543;SDS011;1786;52.870;9.578;2022-12-18T04:06:25;12.70;;;7.37;;
3543;SDS011;1786;52.870;9.578;2022-12-18T04:08:53;17.13;;;6.67;;
3543;SDS011;1786;52.870;9.578;2022-12-18T04:11:23;13.80;;;6.20;;
3543;SDS011;1786;52.870;9.578;2022-12-18T04:13:50;9.17;;;5.93;;
3543;SDS011;1786;52.870;9.578;2022-12-18T04:16:21;9.20;;;6.70;;
3543;SDS011;1786;52.870;9.578;2022-12-18T04:18:51;15.73;;;6.40;;
3543;SDS011;1786;52.870;9.578;2022-12-18T04:21:19;6.57;;;5.20;;
3543;SDS011;1786;52.870;9.578;2022-12-18T04:23:48;10.10;;;6.10;;
3543;SDS011;1786;52.870;9.578;2022-12-18T04:26:17;9.13;;;5.70;;
3543;SDS011;1786;52.870;9.578;2022-12-18T04:28:53;12.70;;;6.00;;
3543;SDS011;1786;52.870;9.578;2022-12-18T04:31:21;8.43;;;5.07;;
3543;SDS011;1786;52.870;9.578;2022-12-18T04:33:48;14.07;;;5.30;;
3543;SDS011;1786;52.870;9.578;2022-12-18T04:36:15;13.17;;;6.33;;
3543;SDS011;1786;52.870;9.578;2022-12-18T04:38:44;13.73;;;6.20;;
3543;SDS011;1786;52.870;9.578;2022-12-18T04:41:13;7.33;;;4.87;;
3543;SDS011;1786;52.870;9.578;2022-12-18T04:43:43;10.47;;;6.13;;
3543;SDS011;1786;52.870;9.578;2022-12-18T04:46:09;11.73;;;5.83;;
3543;SDS011;1786;52.870;9.578;2022-12-18T04:48:36;7.07;;;5.30;;
3543;SDS011;1786;52.870;9.578;2022-12-18T04:51:04;7.53;;;5.47;;
3543;SDS011;1786;52.870;9.578;2022-12-18T04:53:32;13.93;;;6.80;;
3543;SDS011;1786;52.870;9.578;2022-12-18T04:56:03;6.07;;;5.50;;
3543;SDS011;1786;52.870;9.578;2022-12-18T04:58:30;7.27;;;5.50;;
3543;SDS011;1786;52.870;9.578;2022-12-18T05:00:57;6.17;;;5.40;;
3543;SDS011;1786;52.870;9.578;2022-12-18T05:03:23;12.20;;;5.10;;
3543;SDS011;1786;52.870;9.578;2022-12-18T05:05:50;10.73;;;5.97;;
3543;SDS011;1786;52.870;9.578;2022-12-18T05:08:17;9.40;;;5.90;;
3543;SDS011;1786;52.870;9.578;2022-12-18T05:10:45;6.83;;;5.60;;
3543;SDS011;1786;52.870;9.578;2022-12-18T05:13:12;8.07;;;5.77;;
3543;SDS011;1786;52.870;9.578;2022-12-18T05:15:39;6.87;;;4.37;;
3543;SDS011;1786;52.870;9.578;2022-12-18T05:18:05;4.57;;;4.27;;
3543;SDS011;1786;52.870;9.578;2022-12-18T05:20:32;9.60;;;5.33;;
3543;SDS011;1786;52.870;9.578;2022-12-18T05:22:59;8.50;;;5.40;;
3543;SDS011;1786;52.870;9.578;2022-12-18T05:25:26;5.10;;;3.67;;
3543;SDS011;1786;52.870;9.578;2022-12-18T05:27:52;14.23;;;5.03;;
3543;SDS011;1786;52.870;9.578;2022-12-18T05:30:19;9.03;;;5.07;;
3543;SDS011;1786;52.870;9.578;2022-12-18T05:32:46;7.17;;;5.97;;
3543;SDS011;1786;52.870;9.578;2022-12-18T05:35:13;5.93;;;5.27;;
3543;SDS011;1786;52.870;9.578;2022-12-18T05:37:39;11.67;;;5.87;;
3543;SDS011;1786;52.870;9.578;2022-12-18T05:40:09;7.40;;;5.13;;
3543;SDS011;1786;52.870;9.578;2022-12-18T05:42:36;8.27;;;5.30;;
3543;SDS011;1786;52.870;9.578;2022-12-18T05:45:03;9.63;;;5.50;;
3543;SDS011;1786;52.870;9.578;2022-12-18T05:47:31;14.33;;;6.20;;
3543;SDS011;1786;52.870;9.578;2022-12-18T05:49:57;6.77;;;4.97;;
3543;SDS011;1786;52.870;9.578;2022-12-18T05:52:24;5.20;;;4.70;;
3543;SDS011;1786;52.870;9.578;2022-12-18T05:54:50;8.30;;;5.83;;
3543;SDS011;1786;52.870;9.578;2022-12-18T05:57:17;6.20;;;5.13;;
3543;SDS011;1786;52.870;9.578;2022-12-18T05:59:44;6.70;;;4.67;;
3543;SDS011;1786;52.870;9.578;2022-12-18T06:02:11;6.70;;;5.27;;
3543;SDS011;1786;52.870;9.578;2022-12-18T06:04:37;6.93;;;5.00;;
3543;SDS011;1786;52.870;9.578;2022-12-18T06:07:04;7.80;;;5.00;;
3543;SDS011;1786;52.870;9.578;2022-12-18T06:09:31;6.43;;;5.37;;
3543;SDS011;1786;52.870;9.578;2022-12-18T06:11:58;7.17;;;5.47;;
3543;SDS011;1786;52.870;9.578;2022-12-18T06:14:25;8.07;;;5.13;;
3543;SDS011;1786;52.870;9.578;2022-12-18T06:16:52;8.63;;;4.83;;
3543;SDS011;1786;52.870;9.578;2022-12-18T06:19:18;25.90;;;10.87;;
3543;SDS011;1786;52.870;9.578;2022-12-18T06:21:46;44.80;;;15.20;;
3543;SDS011;1786;52.870;9.578;2022-12-18T06:24:13;30.30;;;12.27;;
3543;SDS011;1786;52.870;9.578;2022-12-18T06:26:39;22.83;;;10.67;;
3543;SDS011;1786;52.870;9.578;2022-12-18T06:29:07;19.00;;;8.47;;
3543;SDS011;1786;52.870;9.578;2022-12-18T06:31:34;16.50;;;7.60;;
3543;SDS011;1786;52.870;9.578;2022-12-18T06:34:02;7.07;;;5.37;;
3543;SDS011;1786;52.870;9.578;2022-12-18T06:36:30;14.30;;;4.77;;
3543;SDS011;1786;52.870;9.578;2022-12-18T06:38:57;7.70;;;4.60;;
3543;SDS011;1786;52.870;9.578;2022-12-18T06:41:24;7.53;;;5.30;;
3543;SDS011;1786;52.870;9.578;2022-12-18T06:43:51;9.57;;;5.67;;
3543;SDS011;1786;52.870;9.578;2022-12-18T06:46:25;8.70;;;5.07;;
3543;SDS011;1786;52.870;9.578;2022-12-18T06:48:51;8.37;;;5.23;;
3543;SDS011;1786;52.870;9.578;2022-12-18T06:51:19;6.93;;;5.20;;
3543;SDS011;1786;52.870;9.578;2022-12-18T06:53:47;9.77;;;5.30;;
3543;SDS011;1786;52.870;9.578;2022-12-18T06:56:14;11.20;;;5.53;;
3543;SDS011;1786;52.870;9.578;2022-12-18T06:58:40;6.30;;;5.43;;
3543;SDS011;1786;52.870;9.578;2022-12-18T07:01:09;5.17;;;4.67;;
3543;SDS011;1786;52.870;9.578;2022-12-18T07:03:37;6.40;;;5.07;;
3543;SDS011;1786;52.870;9.578;2022-12-18T07:06:05;6.07;;;5.50;;
3543;SDS011;1786;52.870;9.578;2022-12-18T07:08:33;10.53;;;6.47;;
3543;SDS011;1786;52.870;9.578;2022-12-18T07:11:02;14.27;;;6.67;;
3543;SDS011;1786;52.870;9.578;2022-12-18T07:13:30;14.67;;;7.70;;
3543;SDS011;1786;52.870;9.578;2022-12-18T07:16:14;14.33;;;7.30;;
3543;SDS011;1786;52.870;9.578;2022-12-18T07:18:50;14.73;;;6.00;;
3543;SDS011;1786;52.870;9.578;2022-12-18T07:21:18;11.63;;;6.30;;
3543;SDS011;1786;52.870;9.578;2022-12-18T07:23:46;8.80;;;6.03;;
3543;SDS011;1786;52.870;9.578;2022-12-18T07:26:15;13.70;;;6.23;;
3543;SDS011;1786;52.870;9.578;2022-12-18T07:28:43;11.90;;;6.50;;
3543;SDS011;1786;52.870;9.578;2022-12-18T07:31:17;14.23;;;7.50;;
3543;SDS011;1786;52.870;9.578;2022-12-18T07:33:47;10.17;;;6.97;;
3543;SDS011;1786;52.870;9.578;2022-12-18T07:36:14;12.10;;;6.83;;
3543;SDS011;1786;52.870;9.578;2022-12-18T07:38:41;9.93;;;6.00;;
3543;SDS011;1786;52.870;9.578;2022-12-18T07:41:11;10.43;;;6.77;;
3543;SDS011;1786;52.870;9.578;2022-12-18T07:43:40;11.03;;;7.30;;
3543;SDS011;1786;52.870;9.578;2022-12-18T07:46:08;9.63;;;6.20;;
3543;SDS011;1786;52.870;9.578;2022-12-18T07:48:35;9.30;;;6.90;;
3543;SDS011;1786;52.870;9.578;2022-12-18T07:51:03;11.60;;;7.97;;
3543;SDS011;1786;52.870;9.578;2022-12-18T07:53:31;16.07;;;9.10;;
3543;SDS011;1786;52.870;9.578;2022-12-18T07:56:00;13.67;;;7.90;;
3543;SDS011;1786;52.870;9.578;2022-12-18T07:58:48;16.90;;;7.60;;
3543;SDS011;1786;52.870;9.578;2022-12-18T08:01:15;9.97;;;6.33;;
3543;SDS011;1786;52.870;9.578;2022-12-18T08:03:42;7.47;;;6.00;;
3543;SDS011;1786;52.870;9.578;2022-12-18T08:06:09;7.70;;;5.23;;
3543;SDS011;1786;52.870;9.578;2022-12-18T08:08:36;17.17;;;5.60;;
3543;SDS011;1786;52.870;9.578;2022-12-18T08:11:03;7.93;;;5.90;;
3543;SDS011;1786;52.870;9.578;2022-12-18T08:13:30;8.53;;;6.10;;
3543;SDS011;1786;52.870;9.578;2022-12-18T08:15:58;8.87;;;6.07;;
3543;SDS011;1786;52.870;9.578;2022-12-18T08:18:29;8.10;;;6.93;;
3543;SDS011;1786;52.870;9.578;2022-12-18T08:20:56;8.93;;;6.73;;
3543;SDS011;1786;52.870;9.578;2022-12-18T08:23:22;10.73;;;6.50;;
3543;SDS011;1786;52.870;9.578;2022-12-18T08:25:54;17.20;;;6.10;;
3543;SDS011;1786;52.870;9.578;2022-12-18T08:28:20;10.57;;;7.40;;
3543;SDS011;1786;52.870;9.578;2022-12-18T08:30:50;13.73;;;6.90;;
3543;SDS011;1786;52.870;9.578;2022-12-18T08:33:18;8.60;;;6.87;;
3543;SDS011;1786;52.870;9.578;2022-12-18T08:35:45;23.60;;;9.97;;
3543;SDS011;1786;52.870;9.578;2022-12-18T08:38:11;20.30;;;12.43;;
3543;SDS011;1786;52.870;9.578;2022-12-18T08:40:38;13.97;;;8.80;;
3543;SDS011;1786;52.870;9.578;2022-12-18T08:43:05;16.27;;;8.30;;
3543;SDS011;1786;52.870;9.578;2022-12-18T08:45:50;10.90;;;7.73;;
3543;SDS011;1786;52.870;9.578;2022-12-18T08:48:17;14.50;;;8.60;;
3543;SDS011;1786;52.870;9.578;2022-12-18T08:50:57;26.67;;;12.50;;
3543;SDS011;1786;52.870;9.578;2022-12-18T08:53:25;20.90;;;12.50;;
3543;SDS011;1786;52.870;9.578;2022-12-18T08:55:59;19.30;;;10.50;;
3543;SDS011;1786;52.870;9.578;2022-12-18T08:58:26;13.67;;;8.23;;
3543;SDS011;1786;52.870;9.578;2022-12-18T09:00:52;9.60;;;7.10;;
3543;SDS011;1786;52.870;9.578;2022-12-18T09:03:19;12.37;;;6.30;;
3543;SDS011;1786;52.870;9.578;2022-12-18T09:05:49;11.63;;;7.10;;
3543;SDS011;1786;52.870;9.578;2022-12-18T09:08:16;11.70;;;7.90;;
3543;SDS011;1786;52.870;9.578;2022-12-18T09:10:43;12.87;;;8.37;;
3543;SDS011;1786;52.870;9.578;2022-12-18T09:13:11;14.23;;;7.43;;
3543;SDS011;1786;52.870;9.578;2022-12-18T09:15:45;10.57;;;7.70;;
3543;SDS011;1786;52.870;9.578;2022-12-18T09:18:16;13.53;;;8.40;;
3543;SDS011;1786;52.870;9.578;2022-12-18T09:20:44;10.67;;;7.57;;
3543;SDS011;1786;52.870;9.578;2022-12-18T09:23:11;9.10;;;6.63;;
3543;SDS011;1786;52.870;9.578;2022-12-18T09:25:38;13.97;;;7.40;;
3543;SDS011;1786;52.870;9.578;2022-12-18T09:28:09;10.20;;;6.27;;
3543;SDS011;1786;52.870;9.578;2022-12-18T09:30:42;10.43;;;6.03;;
3543;SDS011;1786;52.870;9.578;2022-12-18T09:33:11;8.37;;;6.57;;
3543;SDS011;1786;52.870;9.578;2022-12-18T09:35:38;8.47;;;6.33;;
3543;SDS011;1786;52.870;9.578;2022-12-18T09:38:06;10.80;;;7.53;;
3543;SDS011;1786;52.870;9.578;2022-12-18T09:40:36;15.17;;;7.53;;
3543;SDS011;1786;52.870;9.578;2022-12-18T09:43:10;17.37;;;8.83;;
3543;SDS011;1786;52.870;9.578;2022-12-18T09:45:47;38.53;;;16.57;;
3543;SDS011;1786;52.870;9.578;2022-12-18T09:48:19;27.80;;;12.73;;
3543;SDS011;1786;52.870;9.578;2022-12-18T09:50:51;22.67;;;12.07;;
3543;SDS011;1786;52.870;9.578;2022-12-18T09:53:26;12.07;;;7.80;;
3543;SDS011;1786;52.870;9.578;2022-12-18T09:55:56;12.03;;;7.17;;
3543;SDS011;1786;52.870;9.578;2022-12-18T09:58:35;10.07;;;6.60;;
3543;SDS011;1786;52.870;9.578;2022-12-18T10:01:12;12.13;;;8.33;;
3543;SDS011;1786;52.870;9.578;2022-12-18T10:03:43;10.60;;;6.20;;
3543;SDS011;1786;52.870;9.578;2022-12-18T10:06:14;6.37;;;5.73;;
3543;SDS011;1786;52.870;9.578;2022-12-18T10:08:59;7.73;;;6.00;;
3543;SDS011;1786;52.870;9.578;2022-12-18T10:11:43;7.73;;;6.00;;
3543;SDS011;1786;52.870;9.578;2022-12-18T10:17:12;10.07;;;6.53;;
3543;SDS011;1786;52.870;9.578;2022-12-18T10:19:59;5.77;;;5.17;;
3543;SDS011;1786;52.870;9.578;2022-12-18T10:28:15;11.10;;;4.83;;
3543;SDS011;1786;52.870;9.578;2022-12-18T10:30:44;11.67;;;6.60;;
3543;SDS011;1786;52.870;9.578;2022-12-18T10:33:16;17.83;;;10.17;;
3543;SDS011;1786;52.870;9.578;2022-12-18T10:35:45;16.60;;;9.23;;
3543;SDS011;1786;52.870;9.578;2022-12-18T10:41:02;7.40;;;5.60;;
3543;SDS011;1786;52.870;9.578;2022-12-18T10:43:30;7.67;;;6.30;;
3543;SDS011;1786;52.870;9.578;2022-12-18T10:51:22;7.53;;;5.50;;
3543;SDS011;1786;52.870;9.578;2022-12-18T10:54:21;8.20;;;5.73;;
3543;SDS011;1786;52.870;9.578;2022-12-18T10:56:50;7.37;;;5.10;;
3543;SDS011;1786;52.870;9.578;2022-12-18T10:59:17;8.50;;;5.73;;
3543;SDS011;1786;52.870;9.578;2022-12-18T11:04:26;6.63;;;5.13;;
3543;SDS011;1786;52.870;9.578;2022-12-18T11:09:30;8.53;;;5.50;;
3543;SDS011;1786;52.870;9.578;2022-12-18T11:12:20;7.60;;;5.67;;
3543;SDS011;1786;52.870;9.578;2022-12-18T11:14:49;6.47;;;5.87;;
3543;SDS011;1786;52.870;9.578;2022-12-18T11:17:19;7.63;;;5.47;;
3543;SDS011;1786;52.870;9.578;2022-12-18T11:19:53;10.13;;;6.10;;
3543;SDS011;1786;52.870;9.578;2022-12-18T11:22:31;10.57;;;6.13;;
3543;SDS011;1786;52.870;9.578;2022-12-18T11:25:07;7.37;;;5.77;;
3543;SDS011;1786;52.870;9.578;2022-12-18T11:28:01;5.93;;;5.13;;
3543;SDS011;1786;52.870;9.578;2022-12-18T11:31:08;6.30;;;5.70;;
3543;SDS011;1786;52.870;9.578;2022-12-18T11:33:39;10.10;;;5.37;;
3543;SDS011;1786;52.870;9.578;2022-12-18T11:36:33;7.20;;;5.37;;
3543;SDS011;1786;52.870;9.578;2022-12-18T11:39:20;7.87;;;4.87;;
3543;SDS011;1786;52.870;9.578;2022-12-18T11:41:56;8.60;;;5.03;;
3543;SDS011;1786;52.870;9.578;2022-12-18T11:47:11;6.73;;;4.87;;
3543;SDS011;1786;52.870;9.578;2022-12-18T11:49:47;7.17;;;5.07;;
3543;SDS011;1786;52.870;9.578;2022-12-18T11:52:21;10.53;;;6.20;;
3543;SDS011;1786;52.870;9.578;2022-12-18T11:54:54;12.23;;;5.27;;
3543;SDS011;1786;52.870;9.578;2022-12-18T11:57:31;7.37;;;5.03;;
3543;SDS011;1786;52.870;9.578;2022-12-18T12:00:08;4.10;;;3.70;;
3543;SDS011;1786;52.870;9.578;2022-12-18T12:08:44;5.23;;;4.33;;
3543;SDS011;1786;52.870;9.578;2022-12-18T12:14:18;4.93;;;4.40;;
3543;SDS011;1786;52.870;9.578;2022-12-18T12:17:34;7.10;;;4.20;;
3543;SDS011;1786;52.870;9.578;2022-12-18T12:22:24;6.90;;;4.00;;
3543;SDS011;1786;52.870;9.578;2022-12-18T12:36:14;4.97;;;3.73;;
3543;SDS011;1786;52.870;9.578;2022-12-18T12:38:46;5.23;;;3.30;;
3543;SDS011;1786;52.870;9.578;2022-12-18T12:41:22;4.07;;;3.43;;
3543;SDS011;1786;52.870;9.578;2022-12-18T12:44:15;4.07;;;3.60;;
3543;SDS011;1786;52.870;9.578;2022-12-18T12:46:47;9.67;;;3.97;;
3543;SDS011;1786;52.870;9.578;2022-12-18T12:49:17;3.77;;;3.33;;
3543;SDS011;1786;52.870;9.578;2022-12-18T12:54:40;4.40;;;3.93;;
3543;SDS011;1786;52.870;9.578;2022-12-18T12:57:21;6.33;;;4.30;;
3543;SDS011;1786;52.870;9.578;2022-12-18T13:02:35;3.73;;;3.43;;
3543;SDS011;1786;52.870;9.578;2022-12-18T13:08:07;4.50;;;3.77;;
3543;SDS011;1786;52.870;9.578;2022-12-18T13:10:36;4.40;;;4.03;;
3543;SDS011;1786;52.870;9.578;2022-12-18T13:13:11;5.67;;;4.27;;
3543;SDS011;1786;52.870;9.578;2022-12-18T13:15:50;6.53;;;5.40;;
3543;SDS011;1786;52.870;9.578;2022-12-18T13:18:32;5.90;;;4.60;;
3543;SDS011;1786;52.870;9.578;2022-12-18T13:23:35;7.80;;;4.87;;
3543;SDS011;1786;52.870;9.578;2022-12-18T13:31:13;7.90;;;4.37;;
3543;SDS011;1786;52.870;9.578;2022-12-18T13:34:19;7.90;;;4.73;;
3543;SDS011;1786;52.870;9.578;2022-12-18T13:36:56;6.27;;;5.00;;
3543;SDS011;1786;52.870;9.578;2022-12-18T13:39:43;6.77;;;4.30;;
3543;SDS011;1786;52.870;9.578;2022-12-18T13:44:57;7.53;;;5.50;;
3543;SDS011;1786;52.870;9.578;2022-12-18T13:47:25;10.43;;;5.83;;
3543;SDS011;1786;52.870;9.578;2022-12-18T13:49:59;8.10;;;5.27;;
3543;SDS011;1786;52.870;9.578;2022-12-18T13:52:33;8.97;;;5.67;;
3543;SDS011;1786;52.870;9.578;2022-12-18T13:55:04;9.37;;;6.03;;
3543;SDS011;1786;52.870;9.578;2022-12-18T13:57:35;6.30;;;5.43;;
3543;SDS011;1786;52.870;9.578;2022-12-18T14:02:55;10.43;;;5.53;;
3543;SDS011;1786;52.870;9.578;2022-12-18T14:05:24;13.00;;;5.30;;
3543;SDS011;1786;52.870;9.578;2022-12-18T14:07:53;5.00;;;4.60;;
3543;SDS011;1786;52.870;9.578;2022-12-18T14:10:22;7.97;;;5.30;;
3543;SDS011;1786;52.870;9.578;2022-12-18T14:13:09;12.37;;;6.23;;
3543;SDS011;1786;52.870;9.578;2022-12-18T14:15:44;7.67;;;5.47;;
3543;SDS011;1786;52.870;9.578;2022-12-18T14:18:18;6.87;;;5.43;;
3543;SDS011;1786;52.870;9.578;2022-12-18T14:21:05;9.80;;;6.07;;
3543;SDS011;1786;52.870;9.578;2022-12-18T14:23:38;7.37;;;5.03;;
3543;SDS011;1786;52.870;9.578;2022-12-18T14:26:24;9.23;;;6.00;;
3543;SDS011;1786;52.870;9.578;2022-12-18T14:28:55;9.97;;;6.20;;
3543;SDS011;1786;52.870;9.578;2022-12-18T14:31:26;11.80;;;6.87;;
3543;SDS011;1786;52.870;9.578;2022-12-18T14:33:55;12.70;;;5.60;;
3543;SDS011;1786;52.870;9.578;2022-12-18T14:36:26;10.27;;;6.90;;
3543;SDS011;1786;52.870;9.578;2022-12-18T14:38:54;11.73;;;7.40;;
3543;SDS011;1786;52.870;9.578;2022-12-18T14:41:23;34.87;;;17.67;;
3543;SDS011;1786;52.870;9.578;2022-12-18T14:43:51;11.27;;;7.63;;
3543;SDS011;1786;52.870;9.578;2022-12-18T14:49:00;18.00;;;8.73;;
3543;SDS011;1786;52.870;9.578;2022-12-18T14:51:52;12.77;;;7.00;;
3543;SDS011;1786;52.870;9.578;2022-12-18T14:54:22;10.10;;;6.93;;
3543;SDS011;1786;52.870;9.578;2022-12-18T14:56:59;8.73;;;6.50;;
3543;SDS011;1786;52.870;9.578;2022-12-18T14:59:30;10.40;;;6.63;;
3543;SDS011;1786;52.870;9.578;2022-12-18T15:02:09;7.13;;;6.07;;
3543;SDS011;1786;52.870;9.578;2022-12-18T15:05:05;13.30;;;7.77;;
3543;SDS011;1786;52.870;9.578;2022-12-18T15:07:46;16.90;;;7.10;;
3543;SDS011;1786;52.870;9.578;2022-12-18T15:17:59;11.10;;;8.03;;
3543;SDS011;1786;52.870;9.578;2022-12-18T15:20:26;12.87;;;7.37;;
3543;SDS011;1786;52.870;9.578;2022-12-18T15:22:53;9.23;;;5.70;;
3543;SDS011;1786;52.870;9.578;2022-12-18T15:25:34;11.17;;;7.50;;
3543;SDS011;1786;52.870;9.578;2022-12-18T15:28:25;11.80;;;7.60;;
3543;SDS011;1786;52.870;9.578;2022-12-18T15:33:35;11.00;;;6.57;;
3543;SDS011;1786;52.870;9.578;2022-12-18T15:36:05;11.93;;;7.27;;
3543;SDS011;1786;52.870;9.578;2022-12-18T15:38:36;12.23;;;8.33;;
3543;SDS011;1786;52.870;9.578;2022-12-18T15:41:02;9.07;;;7.63;;
3543;SDS011;1786;52.870;9.578;2022-12-18T15:43:29;15.17;;;8.47;;
3543;SDS011;1786;52.870;9.578;2022-12-18T15:46:04;13.73;;;7.90;;
3543;SDS011;1786;52.870;9.578;2022-12-18T15:48:33;12.97;;;8.03;;
3543;SDS011;1786;52.870;9.578;2022-12-18T15:51:04;13.70;;;8.40;;
3543;SDS011;1786;52.870;9.578;2022-12-18T15:53:32;15.33;;;9.97;;
3543;SDS011;1786;52.870;9.578;2022-12-18T15:55:59;15.87;;;8.90;;
3543;SDS011;1786;52.870;9.578;2022-12-18T15:58:45;15.37;;;8.10;;
3543;SDS011;1786;52.870;9.578;2022-12-18T16:01:12;13.07;;;8.87;;
3543;SDS011;1786;52.870;9.578;2022-12-18T16:03:39;16.00;;;9.37;;
3543;SDS011;1786;52.870;9.578;2022-12-18T16:06:07;19.23;;;8.90;;
3543;SDS011;1786;52.870;9.578;2022-12-18T16:08:35;19.20;;;10.37;;
3543;SDS011;1786;52.870;9.578;2022-12-18T16:11:03;18.37;;;10.20;;
3543;SDS011;1786;52.870;9.578;2022-12-18T16:13:30;14.57;;;8.63;;
3543;SDS011;1786;52.870;9.578;2022-12-18T16:15:57;12.67;;;7.60;;
3543;SDS011;1786;52.870;9.578;2022-12-18T16:18:24;18.97;;;8.30;;
3543;SDS011;1786;52.870;9.578;2022-12-18T16:20:50;15.43;;;8.70;;
3543;SDS011;1786;52.870;9.578;2022-12-18T16:23:17;17.93;;;8.87;;
3543;SDS011;1786;52.870;9.578;2022-12-18T16:25:43;18.27;;;10.53;;
3543;SDS011;1786;52.870;9.578;2022-12-18T16:28:10;16.37;;;8.37;;
3543;SDS011;1786;52.870;9.578;2022-12-18T16:30:37;10.47;;;8.47;;
3543;SDS011;1786;52.870;9.578;2022-12-18T16:33:04;14.13;;;8.33;;
3543;SDS011;1786;52.870;9.578;2022-12-18T16:35:33;15.20;;;9.50;;
3543;SDS011;1786;52.870;9.578;2022-12-18T16:38:00;11.10;;;6.67;;
3543;SDS011;1786;52.870;9.578;2022-12-18T16:40:26;13.03;;;8.93;;
3543;SDS011;1786;52.870;9.578;2022-12-18T16:42:53;11.03;;;8.60;;
3543;SDS011;1786;52.870;9.578;2022-12-18T16:45:19;9.80;;;7.83;;
3543;SDS011;1786;52.870;9.578;2022-12-18T16:47:46;15.80;;;9.03;;
3543;SDS011;1786;52.870;9.578;2022-12-18T16:50:13;23.47;;;7.97;;
3543;SDS011;1786;52.870;9.578;2022-12-18T16:52:39;12.90;;;8.23;;
3543;SDS011;1786;52.870;9.578;2022-12-18T16:55:06;16.40;;;9.07;;
3543;SDS011;1786;52.870;9.578;2022-12-18T16:57:34;11.97;;;6.83;;
3543;SDS011;1786;52.870;9.578;2022-12-18T17:00:02;11.93;;;7.47;;
3543;SDS011;1786;52.870;9.578;2022-12-18T17:02:31;15.00;;;7.93;;
3543;SDS011;1786;52.870;9.578;2022-12-18T17:04:58;14.07;;;8.57;;
3543;SDS011;1786;52.870;9.578;2022-12-18T17:07:26;13.20;;;7.70;;
3543;SDS011;1786;52.870;9.578;2022-12-18T17:09:54;16.27;;;7.93;;
3543;SDS011;1786;52.870;9.578;2022-12-18T17:12:21;12.87;;;7.90;;
3543;SDS011;1786;52.870;9.578;2022-12-18T17:14:48;15.63;;;8.47;;
3543;SDS011;1786;52.870;9.578;2022-12-18T17:17:16;10.73;;;7.77;;
3543;SDS011;1786;52.870;9.578;2022-12-18T17:19:48;16.37;;;8.37;;
3543;SDS011;1786;52.870;9.578;2022-12-18T17:22:16;12.23;;;7.47;;